createdAt,value
2019-02-24T00:00:32.872Z,4.60
2019-02-24T00:03:35.657Z,3.62
2019-02-24T00:06:38.185Z,4.97
2019-02-24T00:09:40.968Z,6.08
2019-02-24T00:12:44.009Z,4.60
2019-02-24T00:15:46.800Z,3.30
2019-02-24T00:18:50.351Z,6.03
2019-02-24T00:21:52.873Z,5.95
2019-02-24T00:24:59.242Z,5.60
2019-02-24T00:28:07.280Z,5.78
2019-02-24T00:31:04.039Z,4.80
2019-02-24T00:34:06.823Z,6.37
2019-02-24T00:37:09.868Z,5.15
2019-02-24T00:40:12.392Z,3.80
2019-02-24T00:43:14.923Z,3.45
2019-02-24T00:46:17.704Z,4.47
2019-02-24T00:49:20.490Z,6.78
2019-02-24T00:52:23.784Z,5.95
2019-02-24T00:55:27.336Z,4.95
2019-02-24T00:58:30.379Z,5.42
2019-02-24T01:01:33.164Z,4.83
2019-02-24T01:04:35.687Z,6.47
2019-02-24T01:07:38.473Z,4.90
2019-02-24T01:10:41.255Z,5.62
2019-02-24T01:13:44.297Z,5.25
2019-02-24T01:16:46.831Z,5.80
2019-02-24T01:19:52.424Z,5.37
2019-02-24T01:22:54.958Z,5.58
2019-02-24T01:25:57.991Z,4.12
2019-02-24T01:29:00.777Z,5.83
2019-02-24T01:32:03.307Z,4.55
2019-02-24T01:35:06.348Z,5.28
2019-02-24T01:38:08.876Z,4.87
2019-02-24T01:41:11.660Z,5.80
2019-02-24T01:44:14.184Z,4.03
2019-02-24T01:47:25.681Z,5.72
2019-02-24T01:50:28.456Z,5.95
2019-02-24T01:53:31.241Z,6.10
2019-02-24T01:56:34.279Z,5.08
2019-02-24T01:59:36.811Z,3.70
2019-02-24T02:02:38.574Z,3.60
2019-02-24T02:05:40.840Z,3.55
2019-02-24T02:08:43.879Z,3.12
2019-02-24T02:11:46.408Z,2.90
2019-02-24T02:14:49.196Z,5.78
2019-02-24T02:17:51.721Z,6.53
2019-02-24T02:20:56.297Z,5.62
2019-02-24T02:23:59.086Z,6.05
2019-02-24T02:27:01.870Z,5.78
2019-02-24T02:30:04.648Z,3.83
2019-02-24T02:33:07.433Z,4.67
2019-02-24T02:36:11.254Z,5.83
2019-02-24T02:39:13.769Z,5.53
2019-02-24T02:42:16.816Z,3.60
2019-02-24T02:45:19.596Z,5.45
2019-02-24T02:48:23.155Z,5.70
2019-02-24T02:51:25.932Z,4.75
2019-02-24T02:54:28.714Z,4.72
2019-02-24T02:57:31.505Z,5.12
2019-02-24T03:00:34.028Z,4.10
2019-02-24T03:03:38.087Z,5.17
2019-02-24T03:06:40.875Z,4.67
2019-02-24T03:09:43.402Z,5.28
2019-02-24T03:12:46.440Z,3.83
2019-02-24T03:15:48.967Z,4.33
2019-02-24T03:18:52.518Z,4.00
2019-02-24T03:21:55.303Z,5.53
2019-02-24T03:24:58.349Z,3.10
2019-02-24T03:28:00.871Z,3.92
2019-02-24T03:31:03.656Z,5.10
2019-02-24T03:34:06.443Z,3.60
2019-02-24T03:37:08.973Z,2.85
2019-02-24T03:40:11.496Z,3.05
2019-02-24T03:43:14.287Z,3.45
2019-02-24T03:46:16.550Z,3.50
2019-02-24T03:49:19.087Z,5.58
2019-02-24T03:52:21.608Z,3.10
2019-02-24T03:55:24.138Z,3.12
2019-02-24T03:58:26.925Z,3.67
2019-02-24T04:01:30.473Z,3.10
2019-02-24T04:04:33.258Z,6.25
2019-02-24T04:07:32.251Z,5.47
2019-02-24T04:10:34.988Z,5.28
2019-02-24T04:13:37.772Z,5.20
2019-02-24T04:16:40.295Z,6.10
2019-02-24T04:19:43.339Z,5.85
2019-02-24T04:22:46.123Z,5.42
2019-02-24T04:25:48.908Z,4.78
2019-02-24T04:28:51.432Z,4.90
2019-02-24T04:31:54.472Z,6.15
2019-02-24T04:34:57.258Z,5.25
2019-02-24T04:37:59.528Z,5.72
2019-02-24T04:41:02.055Z,5.17
2019-02-24T04:44:04.839Z,2.80
2019-02-24T04:47:07.366Z,3.10
2019-02-24T04:50:10.151Z,5.70
2019-02-24T04:53:12.680Z,5.65
2019-02-24T04:56:16.242Z,4.85
2019-02-24T04:59:19.019Z,5.70
2019-02-24T05:02:21.802Z,6.25
2019-02-24T05:05:24.842Z,7.22
2019-02-24T05:08:27.625Z,5.72
2019-02-24T05:11:30.412Z,6.83
2019-02-24T05:14:33.193Z,5.25
2019-02-24T05:17:32.237Z,4.60
2019-02-24T05:20:35.174Z,4.60
2019-02-24T05:23:37.448Z,3.95
2019-02-24T05:26:40.231Z,5.10
2019-02-24T05:29:46.800Z,3.55
2019-02-24T05:32:49.127Z,4.33
2019-02-24T05:35:52.426Z,4.37
2019-02-24T05:38:55.209Z,4.90
2019-02-24T05:41:58.507Z,5.17
2019-02-24T05:45:01.807Z,4.10
2019-02-24T05:48:05.103Z,4.10
2019-02-24T05:51:08.139Z,4.30
2019-02-24T05:54:10.927Z,4.50
2019-02-24T05:57:13.447Z,3.58
2019-02-24T06:00:15.975Z,3.87
2019-02-24T06:03:18.770Z,3.33
2019-02-24T06:06:21.543Z,3.98
2019-02-24T06:09:27.143Z,2.83
2019-02-24T06:12:30.953Z,3.22
2019-02-24T06:15:34.759Z,4.80
2019-02-24T06:18:37.032Z,2.52
2019-02-24T06:21:40.843Z,2.87
2019-02-24T06:24:43.370Z,2.70
2019-02-24T06:27:46.419Z,3.85
2019-02-24T06:30:48.935Z,4.45
2019-02-24T06:33:52.245Z,4.60
2019-02-24T06:36:55.273Z,4.85
2019-02-24T06:39:58.056Z,3.83
2019-02-24T06:43:00.583Z,4.10
2019-02-24T06:46:03.626Z,4.55
2019-02-24T06:49:02.571Z,5.03
2019-02-24T06:52:05.353Z,4.22
2019-02-24T06:55:08.135Z,4.12
2019-02-24T06:58:10.665Z,4.60
2019-02-24T07:01:13.470Z,2.67
2019-02-24T07:04:16.230Z,3.22
2019-02-24T07:07:15.434Z,3.85
2019-02-24T07:10:17.962Z,5.03
2019-02-24T07:13:20.999Z,4.03
2019-02-24T07:16:23.530Z,4.90
2019-02-24T07:19:26.312Z,2.50
2019-02-24T07:22:29.867Z,2.10
2019-02-24T07:25:32.652Z,1.95
2019-02-24T07:28:31.473Z,2.58
2019-02-24T07:31:34.374Z,2.30
2019-02-24T07:34:37.158Z,4.15
2019-02-24T07:37:39.944Z,5.40
2019-02-24T07:40:42.479Z,5.22
2019-02-24T07:43:45.253Z,4.72
2019-02-24T07:46:47.784Z,3.22
2019-02-24T07:49:51.591Z,3.90
2019-02-24T07:52:54.121Z,3.60
2019-02-24T07:55:56.647Z,2.67
2019-02-24T07:59:00.459Z,3.25
2019-02-24T08:02:02.989Z,5.05
2019-02-24T08:05:05.769Z,5.55
2019-02-24T08:08:03.305Z,3.50
2019-02-24T08:11:06.215Z,4.33
2019-02-24T08:14:09.269Z,4.97
2019-02-24T08:17:11.786Z,3.85
2019-02-24T08:20:14.316Z,4.40
2019-02-24T08:23:17.096Z,5.72
2019-02-24T08:26:19.883Z,5.55
2019-02-24T08:29:22.924Z,5.42
2019-02-24T08:32:25.705Z,4.83
2019-02-24T08:35:28.232Z,5.08
2019-02-24T08:38:30.764Z,5.40
2019-02-24T08:41:33.556Z,4.70
2019-02-24T08:44:36.329Z,5.62
2019-02-24T08:47:39.115Z,6.03
2019-02-24T08:50:41.643Z,5.33
2019-02-24T08:53:46.036Z,4.00
2019-02-24T08:56:47.209Z,4.80
2019-02-24T08:59:51.530Z,5.70
2019-02-24T09:02:54.059Z,4.83
2019-02-24T09:05:56.585Z,5.00
2019-02-24T09:09:07.565Z,5.22
2019-02-24T09:12:10.350Z,4.80
2019-02-24T09:15:13.385Z,5.28
2019-02-24T09:18:15.922Z,4.75
2019-02-24T09:21:18.710Z,5.87
2019-02-24T09:24:28.908Z,5.28
2019-02-24T09:27:32.714Z,4.62
2019-02-24T09:30:37.031Z,3.47
2019-02-24T09:33:39.557Z,4.75
2019-02-24T09:36:43.624Z,4.40
2019-02-24T09:39:46.412Z,5.03
2019-02-24T09:42:49.206Z,4.87
2019-02-24T09:45:51.976Z,3.70
2019-02-24T09:48:54.763Z,4.97
2019-02-24T09:51:57.545Z,3.75
2019-02-24T09:55:00.340Z,3.75
2019-02-24T09:58:02.862Z,4.10
2019-02-24T10:01:11.082Z,4.95
2019-02-24T10:04:13.290Z,4.53
2019-02-24T10:07:16.077Z,4.10
2019-02-24T10:10:19.626Z,4.60
2019-02-24T10:13:22.409Z,3.72
2019-02-24T10:16:24.938Z,4.45
2019-02-24T10:19:31.283Z,3.85
2019-02-24T10:22:30.759Z,4.97
2019-02-24T10:25:33.545Z,4.10
2019-02-24T10:28:36.329Z,2.80
2019-02-24T10:31:39.114Z,3.87
2019-02-24T10:34:41.895Z,3.92
2019-02-24T10:37:44.425Z,3.45
2019-02-24T10:40:46.954Z,3.50
2019-02-24T10:43:49.481Z,3.95
2019-02-24T10:46:52.271Z,4.20
2019-02-24T10:49:51.207Z,2.10
2019-02-24T10:52:54.513Z,2.75
2019-02-24T10:55:57.544Z,4.83
2019-02-24T10:59:00.072Z,4.47
2019-02-24T11:02:02.602Z,2.58
2019-02-24T11:05:08.973Z,3.10
2019-02-24T11:08:11.496Z,4.05
2019-02-24T11:11:14.024Z,4.58
2019-02-24T11:14:16.811Z,4.05
2019-02-24T11:17:19.338Z,2.98
2019-02-24T11:20:22.378Z,3.90
2019-02-24T11:23:21.356Z,5.03
2019-02-24T11:26:24.105Z,3.70
2019-02-24T11:29:26.635Z,2.85
2019-02-24T11:32:30.703Z,5.50
2019-02-24T11:35:33.482Z,3.77
2019-02-24T11:38:36.264Z,4.08
2019-02-24T11:41:39.559Z,3.75
2019-02-24T11:44:42.604Z,4.12
2019-02-24T11:47:45.129Z,4.55
2019-02-24T11:50:48.939Z,3.87
2019-02-24T11:53:51.718Z,2.80
2019-02-24T11:56:55.067Z,4.80
2019-02-24T11:59:57.562Z,3.77
2019-02-24T12:03:00.583Z,3.15
2019-02-24T12:06:03.883Z,4.87
2019-02-24T12:09:08.570Z,2.77
2019-02-24T12:12:09.193Z,3.80
2019-02-24T12:15:11.974Z,3.60
2019-02-24T12:18:14.769Z,3.05
2019-02-24T12:21:17.550Z,3.52
2019-02-24T12:24:20.338Z,3.25
2019-02-24T12:27:23.114Z,2.92
2019-02-24T12:30:27.774Z,3.75
2019-02-24T12:33:28.684Z,3.47
2019-02-24T12:36:32.489Z,4.28
2019-02-24T12:39:35.529Z,3.52
2019-02-24T12:42:38.059Z,3.40
2019-02-24T12:45:48.262Z,4.12
2019-02-24T12:48:50.796Z,3.42
2019-02-24T12:51:53.835Z,3.22
2019-02-24T12:55:52.185Z,3.27
2019-02-24T12:58:54.968Z,2.90
2019-02-24T13:02:05.439Z,3.10
2019-02-24T13:05:00.526Z,3.65
2019-02-24T13:08:03.306Z,4.08
2019-02-24T13:11:05.834Z,4.47
2019-02-24T13:14:08.618Z,4.05
2019-02-24T13:17:11.704Z,3.92
2019-02-24T13:20:14.445Z,3.35
2019-02-24T13:23:17.225Z,4.28
2019-02-24T13:26:15.910Z,4.37
2019-02-24T13:29:19.464Z,5.03
2019-02-24T13:32:22.253Z,3.08
2019-02-24T13:35:21.544Z,2.70
2019-02-24T13:38:24.999Z,4.47
2019-02-24T13:41:27.786Z,4.90
2019-02-24T13:44:30.570Z,2.98
2019-02-24T13:47:33.607Z,4.95
2019-02-24T13:50:36.648Z,3.90
2019-02-24T13:53:40.199Z,4.47
2019-02-24T13:56:42.472Z,4.05
2019-02-24T13:59:45.256Z,4.58
2019-02-24T14:02:48.042Z,5.83
2019-02-24T14:05:52.367Z,5.33
2019-02-24T14:08:55.188Z,4.85
2019-02-24T14:11:58.186Z,4.35
2019-02-24T14:15:00.710Z,5.10
2019-02-24T14:18:03.498Z,4.70
2019-02-24T14:21:02.632Z,4.85
2019-02-24T14:24:08.983Z,5.05
2019-02-24T14:27:08.774Z,4.90
2019-02-24T14:30:07.734Z,5.85
2019-02-24T14:33:10.760Z,4.70
2019-02-24T14:36:14.313Z,4.75
2019-02-24T14:39:17.104Z,5.58
2019-02-24T14:42:15.784Z,5.17
2019-02-24T14:45:18.569Z,4.17
2019-02-24T14:48:22.378Z,5.55
2019-02-24T14:51:25.163Z,4.72
2019-02-24T14:54:27.699Z,4.50
2019-02-24T14:57:30.475Z,4.03
2019-02-24T15:00:33.256Z,4.55
2019-02-24T15:03:36.043Z,4.97
2019-02-24T15:06:38.826Z,3.55
2019-02-24T15:09:43.148Z,4.83
2019-02-24T15:12:41.973Z,4.87
2019-02-24T15:15:48.199Z,4.53
2019-02-24T15:18:56.910Z,5.42
2019-02-24T15:21:59.913Z,4.70
2019-02-24T15:25:03.729Z,4.12
2019-02-24T15:28:06.506Z,4.62
2019-02-24T15:31:09.036Z,3.85
2019-02-24T15:34:11.816Z,3.05
2019-02-24T15:37:17.928Z,4.90
2019-02-24T15:40:20.714Z,3.85
2019-02-24T15:43:24.774Z,3.52
2019-02-24T15:46:27.309Z,3.47
2019-02-24T15:49:31.371Z,3.52
2019-02-24T15:52:34.409Z,4.87
2019-02-24T15:55:37.195Z,3.08
2019-02-24T15:58:40.237Z,3.95
2019-02-24T16:01:42.760Z,3.72
2019-02-24T16:04:46.314Z,2.95
2019-02-24T16:07:48.843Z,3.15
2019-02-24T16:10:51.878Z,3.58
2019-02-24T16:13:54.416Z,3.10
2019-02-24T16:16:57.197Z,3.58
2019-02-24T16:20:00.235Z,3.15
2019-02-24T16:23:02.509Z,4.78
2019-02-24T16:26:05.032Z,3.22
2019-02-24T16:29:08.077Z,3.83
2019-02-24T16:32:10.600Z,2.65
2019-02-24T16:35:13.383Z,4.03
2019-02-24T16:38:16.424Z,2.87
2019-02-24T16:41:18.956Z,4.10
2019-02-24T16:44:17.868Z,4.40
2019-02-24T16:47:20.936Z,4.53
2019-02-24T16:50:23.720Z,4.40
2019-02-24T16:53:26.506Z,4.00
2019-02-24T16:56:30.313Z,4.83
2019-02-24T16:59:33.352Z,4.33
2019-02-24T17:02:35.882Z,4.87
2019-02-24T17:05:35.084Z,4.87
2019-02-24T17:08:37.865Z,4.42
2019-02-24T17:11:40.397Z,4.08
2019-02-24T17:14:43.431Z,4.53
2019-02-24T17:17:46.216Z,4.42
2019-02-24T17:20:49.257Z,4.72
2019-02-24T17:23:52.468Z,5.28
2019-02-24T17:26:55.593Z,3.87
2019-02-24T17:29:58.890Z,4.20
2019-02-24T17:33:03.982Z,4.15
2019-02-24T17:36:07.695Z,4.15
2019-02-24T17:39:09.550Z,4.25
2019-02-24T17:42:12.074Z,4.65
2019-02-24T17:45:15.370Z,4.70
2019-02-24T17:48:14.061Z,5.15
2019-02-24T17:51:21.190Z,5.42
2019-02-24T17:54:19.624Z,4.53
2019-02-24T17:57:22.663Z,5.20
2019-02-24T18:00:25.451Z,5.30
2019-02-24T18:03:28.491Z,5.17
2019-02-24T18:06:31.528Z,5.22
2019-02-24T18:09:34.057Z,5.20
2019-02-24T18:12:36.846Z,5.72
2019-02-24T18:15:40.396Z,5.70
2019-02-24T18:18:43.946Z,5.83
2019-02-24T18:21:46.988Z,5.85
2019-02-24T18:24:49.774Z,6.17
2019-02-24T18:27:52.554Z,6.17
2019-02-24T18:30:55.365Z,7.12
2019-02-24T18:33:58.123Z,6.75
2019-02-24T18:37:00.904Z,6.45
2019-02-24T18:40:04.975Z,6.42
2019-02-24T18:43:07.496Z,6.85
2019-02-24T18:46:10.538Z,6.58
2019-02-24T18:49:13.337Z,6.97
2019-02-24T18:52:16.362Z,6.85
2019-02-24T18:55:21.708Z,6.75
2019-02-24T18:58:21.282Z,5.10
2019-02-24T19:01:23.688Z,7.05
2019-02-24T19:04:26.730Z,5.85
2019-02-24T19:07:30.280Z,7.20
2019-02-24T19:10:28.975Z,6.42
2019-02-24T19:13:31.753Z,6.65
2019-02-24T19:16:34.283Z,5.55
2019-02-24T19:19:37.069Z,6.60
2019-02-24T19:22:40.108Z,6.75
2019-02-24T19:25:42.637Z,6.90
2019-02-24T19:28:45.166Z,7.45
2019-02-24T19:31:47.695Z,7.65
2019-02-24T19:34:50.217Z,6.95
2019-02-24T19:37:53.011Z,6.70
2019-02-24T19:40:56.808Z,7.03
2019-02-24T19:44:01.906Z,6.28
2019-02-24T19:47:04.425Z,6.30
2019-02-24T19:50:07.468Z,6.37
2019-02-24T19:53:09.993Z,6.85
2019-02-24T19:56:13.543Z,6.00
2019-02-24T19:59:16.071Z,6.50
2019-02-24T20:02:12.711Z,5.42
2019-02-24T20:05:16.275Z,6.40
2019-02-24T20:08:15.350Z,6.67
2019-02-24T20:11:17.993Z,6.40
2019-02-24T20:14:20.521Z,3.95
2019-02-24T20:17:23.305Z,5.30
2019-02-24T20:20:33.276Z,6.55
2019-02-24T20:23:36.301Z,4.83
2019-02-24T20:26:39.339Z,3.47
2019-02-24T20:29:42.379Z,5.83
2019-02-24T20:32:45.161Z,5.50
2019-02-24T20:35:48.203Z,3.62
2019-02-24T20:38:51.239Z,5.87
2019-02-24T20:41:54.284Z,6.70
2019-02-24T20:44:56.557Z,6.75
2019-02-24T20:47:59.337Z,6.95
2019-02-24T20:51:01.868Z,6.67
2019-02-24T20:54:04.398Z,6.78
2019-02-24T20:57:07.442Z,7.62
2019-02-24T21:00:10.478Z,6.72
2019-02-24T21:03:13.261Z,7.47
2019-02-24T21:06:17.068Z,7.65
2019-02-24T21:09:19.591Z,6.08
2019-02-24T21:12:22.376Z,6.08
2019-02-24T21:15:24.917Z,5.17
2019-02-24T21:18:27.432Z,5.90
2019-02-24T21:21:29.966Z,7.70
2019-02-24T21:24:35.564Z,7.62
2019-02-24T21:27:38.345Z,8.13
2019-02-24T21:30:41.643Z,6.85
2019-02-24T21:33:45.195Z,7.50
2019-02-24T21:36:47.726Z,8.00
2019-02-24T21:39:50.764Z,7.25
2019-02-24T21:42:52.197Z,7.15
2019-02-24T21:45:55.308Z,7.00
2019-02-24T21:48:58.090Z,6.00
2019-02-24T21:52:09.066Z,4.90
2019-02-24T21:55:12.104Z,3.35
2019-02-24T21:58:10.791Z,4.47
2019-02-24T22:01:13.576Z,5.37
2019-02-24T22:04:18.409Z,6.50
2019-02-24T22:07:21.448Z,7.03
2019-02-24T22:10:24.489Z,3.45
2019-02-24T22:13:27.533Z,2.65
2019-02-24T22:16:30.568Z,6.05
2019-02-24T22:19:34.888Z,3.75
2019-02-24T22:22:37.416Z,2.95
2019-02-24T22:25:39.945Z,2.70
2019-02-24T22:28:42.727Z,2.75
2019-02-24T22:31:45.768Z,2.37
2019-02-24T22:34:48.553Z,6.75
2019-02-24T22:37:52.368Z,4.62
2019-02-24T22:40:55.418Z,7.87
2019-02-24T22:43:57.936Z,6.87
2019-02-24T22:47:00.712Z,7.40
2019-02-24T22:50:03.507Z,7.45
2019-02-24T22:53:06.295Z,7.55
2019-02-24T22:56:08.811Z,7.28
2019-02-24T22:59:07.756Z,7.35
2019-02-24T23:02:17.452Z,4.17
2019-02-24T23:05:20.490Z,6.65
2019-02-24T23:08:23.281Z,4.00
2019-02-24T23:11:26.063Z,6.85
2019-02-24T23:14:29.866Z,7.45
2019-02-24T23:17:32.650Z,4.87
2019-02-24T23:20:35.433Z,7.70
2019-02-24T23:23:38.214Z,3.10
2019-02-24T23:26:40.745Z,3.12
2019-02-24T23:29:43.274Z,6.95
2019-02-24T23:32:45.800Z,7.40
2019-02-24T23:35:48.329Z,4.53
2019-02-24T23:38:50.857Z,6.83
2019-02-24T23:41:54.661Z,3.00
2019-02-24T23:44:56.936Z,6.72
2019-02-24T23:47:59.977Z,7.83
2019-02-24T23:51:05.579Z,7.70
2019-02-24T23:54:08.358Z,3.37
2019-02-24T23:57:10.887Z,7.12
